3LF

Litchfield Municipal Airport

Litchfield, Illinois, USA
METAR K3LF 221435Z AUTO 05009KT 10SM CLR 14/10 A3027 RMK AO2 T01440097
Observed Flight Rules
Sep-22 @ 14:35 UTC (25 minutes ago) Visual Flight Rules
Wind Visibility Clouds
50° at 9 knots 10 miles
Temperatures Readings
Current 14°C / 57°F
Dewpoint 10°C / 50°F
Humidity 77%
Altimeter 30.27" Hg
Pressure 1025 hPa
Elevation 210
METAR K3LF 221435Z AUTO 05009KT 10SM CLR 14/10 A3027 RMK AO2 T01440097
Observed Flight Rules
Sep-22 @ 14:35 UTC
(25 minutes ago)
VFR
Wind Visibility
50° at 9 knots 10 miles
Clouds
Temperature Dewpoint
14°C / 57°F 10°C / 50°F
Humidity Altimeter Pressure
77% 30.27" Hg 1025 hPa